sensor_id;sensor_type;location;lat;lon;timestamp;P1;durP1;ratioP1;P2;durP2;ratioP2
12484;SDS011;6307;46.804;11.580;2022-09-09T00:12:47;2.43;;;1.00;;
12484;SDS011;6307;46.804;11.580;2022-09-09T00:15:26;3.30;;;1.10;;
12484;SDS011;6307;46.804;11.580;2022-09-09T00:21:15;5.23;;;1.07;;
12484;SDS011;6307;46.804;11.580;2022-09-09T00:23:47;2.13;;;1.00;;
12484;SDS011;6307;46.804;11.580;2022-09-09T00:29:45;3.97;;;1.00;;
12484;SDS011;6307;46.804;11.580;2022-09-09T00:32:13;2.67;;;1.10;;
12484;SDS011;6307;46.804;11.580;2022-09-09T00:34:55;3.17;;;1.00;;
12484;SDS011;6307;46.804;11.580;2022-09-09T00:37:28;2.87;;;1.00;;
12484;SDS011;6307;46.804;11.580;2022-09-09T00:39:57;1.47;;;0.90;;
12484;SDS011;6307;46.804;11.580;2022-09-09T00:42:36;4.77;;;1.20;;
12484;SDS011;6307;46.804;11.580;2022-09-09T00:48:08;3.50;;;1.07;;
12484;SDS011;6307;46.804;11.580;2022-09-09T00:53:39;2.07;;;1.20;;
12484;SDS011;6307;46.804;11.580;2022-09-09T00:56:36;2.37;;;1.13;;
12484;SDS011;6307;46.804;11.580;2022-09-09T01:02:43;4.70;;;1.27;;
12484;SDS011;6307;46.804;11.580;2022-09-09T01:05:46;1.20;;;1.10;;
12484;SDS011;6307;46.804;11.580;2022-09-09T01:17:05;6.80;;;1.70;;
12484;SDS011;6307;46.804;11.580;2022-09-09T01:20:25;3.33;;;1.43;;
12484;SDS011;6307;46.804;11.580;2022-09-09T01:28:48;1.83;;;1.40;;
12484;SDS011;6307;46.804;11.580;2022-09-09T01:31:21;1.60;;;1.50;;
12484;SDS011;6307;46.804;11.580;2022-09-09T01:34:08;1.93;;;1.43;;
12484;SDS011;6307;46.804;11.580;2022-09-09T01:39:30;4.17;;;1.40;;
12484;SDS011;6307;46.804;11.580;2022-09-09T01:42:00;2.90;;;1.60;;
12484;SDS011;6307;46.804;11.580;2022-09-09T01:44:28;2.40;;;1.40;;
12484;SDS011;6307;46.804;11.580;2022-09-09T01:46:56;4.40;;;1.70;;
12484;SDS011;6307;46.804;11.580;2022-09-09T01:49:22;7.47;;;1.50;;
12484;SDS011;6307;46.804;11.580;2022-09-09T01:51:49;4.03;;;1.60;;
12484;SDS011;6307;46.804;11.580;2022-09-09T01:54:20;1.50;;;1.40;;
12484;SDS011;6307;46.804;11.580;2022-09-09T02:00:04;2.57;;;1.47;;
12484;SDS011;6307;46.804;11.580;2022-09-09T02:02:36;2.07;;;1.50;;
12484;SDS011;6307;46.804;11.580;2022-09-09T02:08:40;2.13;;;1.53;;
12484;SDS011;6307;46.804;11.580;2022-09-09T02:11:15;3.57;;;1.47;;
12484;SDS011;6307;46.804;11.580;2022-09-09T02:13:48;5.63;;;1.80;;
12484;SDS011;6307;46.804;11.580;2022-09-09T02:16:24;4.10;;;1.50;;
12484;SDS011;6307;46.804;11.580;2022-09-09T02:19:00;8.93;;;1.87;;
12484;SDS011;6307;46.804;11.580;2022-09-09T02:21:30;2.10;;;1.50;;
12484;SDS011;6307;46.804;11.580;2022-09-09T02:24:00;2.63;;;1.20;;
12484;SDS011;6307;46.804;11.580;2022-09-09T02:26:35;3.27;;;1.80;;
12484;SDS011;6307;46.804;11.580;2022-09-09T02:29:08;4.60;;;1.70;;
12484;SDS011;6307;46.804;11.580;2022-09-09T02:31:42;3.57;;;1.43;;
12484;SDS011;6307;46.804;11.580;2022-09-09T02:34:13;3.47;;;2.03;;
12484;SDS011;6307;46.804;11.580;2022-09-09T02:36:42;4.70;;;1.60;;
12484;SDS011;6307;46.804;11.580;2022-09-09T02:39:10;1.97;;;1.40;;
12484;SDS011;6307;46.804;11.580;2022-09-09T02:41:38;3.30;;;1.90;;
12484;SDS011;6307;46.804;11.580;2022-09-09T02:44:13;3.03;;;1.40;;
12484;SDS011;6307;46.804;11.580;2022-09-09T02:52:15;4.27;;;1.70;;
12484;SDS011;6307;46.804;11.580;2022-09-09T02:54:45;4.03;;;1.53;;
12484;SDS011;6307;46.804;11.580;2022-09-09T02:57:26;6.17;;;1.90;;
12484;SDS011;6307;46.804;11.580;2022-09-09T02:59:57;3.57;;;1.90;;
12484;SDS011;6307;46.804;11.580;2022-09-09T03:02:24;3.27;;;1.53;;
12484;SDS011;6307;46.804;11.580;2022-09-09T03:04:51;2.90;;;1.80;;
12484;SDS011;6307;46.804;11.580;2022-09-09T03:07:20;3.20;;;1.53;;
12484;SDS011;6307;46.804;11.580;2022-09-09T03:09:47;4.00;;;1.40;;
12484;SDS011;6307;46.804;11.580;2022-09-09T03:12:13;1.60;;;1.50;;
12484;SDS011;6307;46.804;11.580;2022-09-09T03:14:41;2.27;;;1.60;;
12484;SDS011;6307;46.804;11.580;2022-09-09T03:17:25;3.37;;;1.40;;
12484;SDS011;6307;46.804;11.580;2022-09-09T03:19:53;2.07;;;1.40;;
12484;SDS011;6307;46.804;11.580;2022-09-09T03:22:20;3.03;;;1.50;;
12484;SDS011;6307;46.804;11.580;2022-09-09T03:24:46;5.30;;;1.50;;
12484;SDS011;6307;46.804;11.580;2022-09-09T03:27:12;5.17;;;1.80;;
12484;SDS011;6307;46.804;11.580;2022-09-09T03:29:42;1.73;;;1.30;;
12484;SDS011;6307;46.804;11.580;2022-09-09T03:32:09;3.77;;;1.40;;
12484;SDS011;6307;46.804;11.580;2022-09-09T03:34:36;4.10;;;1.30;;
12484;SDS011;6307;46.804;11.580;2022-09-09T03:37:05;1.43;;;1.13;;
12484;SDS011;6307;46.804;11.580;2022-09-09T03:39:31;4.70;;;1.50;;
12484;SDS011;6307;46.804;11.580;2022-09-09T03:41:58;7.30;;;1.93;;
12484;SDS011;6307;46.804;11.580;2022-09-09T03:44:24;5.87;;;1.50;;
12484;SDS011;6307;46.804;11.580;2022-09-09T03:46:50;2.53;;;1.53;;
12484;SDS011;6307;46.804;11.580;2022-09-09T03:49:16;2.97;;;1.80;;
12484;SDS011;6307;46.804;11.580;2022-09-09T03:51:43;4.63;;;2.10;;
12484;SDS011;6307;46.804;11.580;2022-09-09T03:54:09;5.53;;;2.13;;
12484;SDS011;6307;46.804;11.580;2022-09-09T03:56:35;4.00;;;1.70;;
12484;SDS011;6307;46.804;11.580;2022-09-09T03:59:02;8.03;;;1.73;;
12484;SDS011;6307;46.804;11.580;2022-09-09T04:01:29;4.20;;;1.63;;
12484;SDS011;6307;46.804;11.580;2022-09-09T04:03:55;4.10;;;1.90;;
12484;SDS011;6307;46.804;11.580;2022-09-09T04:06:23;3.07;;;2.10;;
12484;SDS011;6307;46.804;11.580;2022-09-09T04:08:50;4.60;;;2.03;;
12484;SDS011;6307;46.804;11.580;2022-09-09T04:11:17;5.33;;;2.40;;
12484;SDS011;6307;46.804;11.580;2022-09-09T04:13:43;3.03;;;2.53;;
12484;SDS011;6307;46.804;11.580;2022-09-09T04:16:10;3.10;;;1.97;;
12484;SDS011;6307;46.804;11.580;2022-09-09T04:18:40;2.63;;;1.90;;
12484;SDS011;6307;46.804;11.580;2022-09-09T04:21:08;3.73;;;2.00;;
12484;SDS011;6307;46.804;11.580;2022-09-09T04:23:37;2.30;;;1.83;;
12484;SDS011;6307;46.804;11.580;2022-09-09T04:26:03;6.97;;;2.13;;
12484;SDS011;6307;46.804;11.580;2022-09-09T04:28:31;3.93;;;2.20;;
12484;SDS011;6307;46.804;11.580;2022-09-09T04:31:04;4.17;;;2.10;;
12484;SDS011;6307;46.804;11.580;2022-09-09T04:33:34;2.83;;;2.40;;
12484;SDS011;6307;46.804;11.580;2022-09-09T04:36:00;6.20;;;2.10;;
12484;SDS011;6307;46.804;11.580;2022-09-09T04:38:27;4.87;;;2.30;;
12484;SDS011;6307;46.804;11.580;2022-09-09T04:40:54;4.03;;;2.40;;
12484;SDS011;6307;46.804;11.580;2022-09-09T04:43:21;4.00;;;2.60;;
12484;SDS011;6307;46.804;11.580;2022-09-09T04:45:48;6.10;;;2.50;;
12484;SDS011;6307;46.804;11.580;2022-09-09T04:48:16;4.90;;;2.33;;
12484;SDS011;6307;46.804;11.580;2022-09-09T04:50:43;6.60;;;2.40;;
12484;SDS011;6307;46.804;11.580;2022-09-09T04:53:18;5.67;;;2.47;;
12484;SDS011;6307;46.804;11.580;2022-09-09T04:55:44;4.57;;;2.20;;
12484;SDS011;6307;46.804;11.580;2022-09-09T04:58:11;2.67;;;1.97;;
12484;SDS011;6307;46.804;11.580;2022-09-09T05:00:37;5.57;;;2.40;;
12484;SDS011;6307;46.804;11.580;2022-09-09T05:03:03;3.07;;;2.30;;
12484;SDS011;6307;46.804;11.580;2022-09-09T05:05:31;3.50;;;2.27;;
12484;SDS011;6307;46.804;11.580;2022-09-09T05:08:03;4.30;;;2.27;;
12484;SDS011;6307;46.804;11.580;2022-09-09T05:10:31;8.57;;;2.33;;
12484;SDS011;6307;46.804;11.580;2022-09-09T05:12:58;4.97;;;2.20;;
12484;SDS011;6307;46.804;11.580;2022-09-09T05:15:24;6.00;;;2.40;;
12484;SDS011;6307;46.804;11.580;2022-09-09T05:17:50;2.57;;;1.90;;
12484;SDS011;6307;46.804;11.580;2022-09-09T05:20:18;7.20;;;2.30;;
12484;SDS011;6307;46.804;11.580;2022-09-09T05:22:44;2.37;;;2.17;;
12484;SDS011;6307;46.804;11.580;2022-09-09T05:25:10;5.13;;;2.30;;
12484;SDS011;6307;46.804;11.580;2022-09-09T05:27:36;3.63;;;1.97;;
12484;SDS011;6307;46.804;11.580;2022-09-09T05:30:02;3.17;;;1.80;;
12484;SDS011;6307;46.804;11.580;2022-09-09T05:32:29;5.03;;;2.33;;
12484;SDS011;6307;46.804;11.580;2022-09-09T05:48:45;2.80;;;2.30;;
12484;SDS011;6307;46.804;11.580;2022-09-09T05:51:17;4.33;;;2.10;;
12484;SDS011;6307;46.804;11.580;2022-09-09T05:53:47;5.83;;;2.33;;
12484;SDS011;6307;46.804;11.580;2022-09-09T05:56:15;5.20;;;2.03;;
12484;SDS011;6307;46.804;11.580;2022-09-09T05:58:44;4.87;;;1.87;;
12484;SDS011;6307;46.804;11.580;2022-09-09T06:01:18;3.17;;;1.87;;
12484;SDS011;6307;46.804;11.580;2022-09-09T06:03:54;3.43;;;1.97;;
12484;SDS011;6307;46.804;11.580;2022-09-09T06:06:22;3.47;;;2.07;;
12484;SDS011;6307;46.804;11.580;2022-09-09T06:08:52;3.00;;;2.30;;
12484;SDS011;6307;46.804;11.580;2022-09-09T06:11:23;3.27;;;2.17;;
12484;SDS011;6307;46.804;11.580;2022-09-09T06:13:52;5.13;;;2.17;;
12484;SDS011;6307;46.804;11.580;2022-09-09T06:16:20;2.00;;;1.67;;
12484;SDS011;6307;46.804;11.580;2022-09-09T06:18:50;1.33;;;1.23;;
12484;SDS011;6307;46.804;11.580;2022-09-09T06:21:18;4.30;;;1.20;;
12484;SDS011;6307;46.804;11.580;2022-09-09T06:23:47;1.37;;;1.27;;
12484;SDS011;6307;46.804;11.580;2022-09-09T06:26:15;2.87;;;1.63;;
12484;SDS011;6307;46.804;11.580;2022-09-09T06:28:43;3.80;;;1.77;;
12484;SDS011;6307;46.804;11.580;2022-09-09T06:31:18;4.20;;;1.77;;
12484;SDS011;6307;46.804;11.580;2022-09-09T06:33:47;3.60;;;1.77;;
12484;SDS011;6307;46.804;11.580;2022-09-09T06:36:23;3.23;;;2.00;;
12484;SDS011;6307;46.804;11.580;2022-09-09T06:38:56;4.57;;;1.80;;
12484;SDS011;6307;46.804;11.580;2022-09-09T06:41:24;3.83;;;2.17;;
12484;SDS011;6307;46.804;11.580;2022-09-09T06:43:53;7.77;;;2.30;;
12484;SDS011;6307;46.804;11.580;2022-09-09T06:46:24;4.70;;;2.10;;
12484;SDS011;6307;46.804;11.580;2022-09-09T06:48:53;4.40;;;2.13;;
12484;SDS011;6307;46.804;11.580;2022-09-09T06:51:21;5.83;;;2.27;;
12484;SDS011;6307;46.804;11.580;2022-09-09T06:53:55;3.87;;;2.13;;
12484;SDS011;6307;46.804;11.580;2022-09-09T06:58:55;3.97;;;1.90;;
12484;SDS011;6307;46.804;11.580;2022-09-09T07:01:26;3.20;;;1.90;;
12484;SDS011;6307;46.804;11.580;2022-09-09T07:03:56;3.97;;;1.80;;
12484;SDS011;6307;46.804;11.580;2022-09-09T07:06:27;2.33;;;1.83;;
12484;SDS011;6307;46.804;11.580;2022-09-09T07:09:03;4.40;;;2.10;;
12484;SDS011;6307;46.804;11.580;2022-09-09T07:11:40;3.13;;;2.00;;
12484;SDS011;6307;46.804;11.580;2022-09-09T07:14:08;2.43;;;1.87;;
12484;SDS011;6307;46.804;11.580;2022-09-09T07:16:39;3.17;;;1.70;;
12484;SDS011;6307;46.804;11.580;2022-09-09T07:19:09;2.50;;;1.37;;
12484;SDS011;6307;46.804;11.580;2022-09-09T07:21:37;4.37;;;1.47;;
12484;SDS011;6307;46.804;11.580;2022-09-09T07:24:05;2.33;;;1.30;;
12484;SDS011;6307;46.804;11.580;2022-09-09T07:26:36;1.20;;;0.80;;
12484;SDS011;6307;46.804;11.580;2022-09-09T07:29:04;2.13;;;0.83;;
12484;SDS011;6307;46.804;11.580;2022-09-09T07:31:31;1.67;;;0.90;;
12484;SDS011;6307;46.804;11.580;2022-09-09T07:34:02;1.13;;;0.70;;
12484;SDS011;6307;46.804;11.580;2022-09-09T07:36:30;1.53;;;0.80;;
12484;SDS011;6307;46.804;11.580;2022-09-09T07:39:00;3.07;;;0.80;;
12484;SDS011;6307;46.804;11.580;2022-09-09T07:41:36;5.03;;;0.97;;
12484;SDS011;6307;46.804;11.580;2022-09-09T07:44:18;1.67;;;0.90;;
12484;SDS011;6307;46.804;11.580;2022-09-09T07:46:47;1.20;;;0.80;;
12484;SDS011;6307;46.804;11.580;2022-09-09T07:49:14;6.73;;;1.23;;
12484;SDS011;6307;46.804;11.580;2022-09-09T07:51:41;4.83;;;1.30;;
12484;SDS011;6307;46.804;11.580;2022-09-09T07:54:11;3.77;;;1.33;;
12484;SDS011;6307;46.804;11.580;2022-09-09T07:56:41;2.07;;;1.13;;
12484;SDS011;6307;46.804;11.580;2022-09-09T07:59:08;1.67;;;1.17;;
12484;SDS011;6307;46.804;11.580;2022-09-09T08:01:39;2.57;;;1.10;;
12484;SDS011;6307;46.804;11.580;2022-09-09T08:04:12;1.80;;;1.03;;
12484;SDS011;6307;46.804;11.580;2022-09-09T08:06:45;1.13;;;1.03;;
12484;SDS011;6307;46.804;11.580;2022-09-09T08:09:18;1.63;;;1.10;;
12484;SDS011;6307;46.804;11.580;2022-09-09T08:11:46;2.80;;;1.10;;
12484;SDS011;6307;46.804;11.580;2022-09-09T08:14:13;3.63;;;1.20;;
12484;SDS011;6307;46.804;11.580;2022-09-09T08:16:40;3.03;;;1.10;;
12484;SDS011;6307;46.804;11.580;2022-09-09T08:19:12;3.20;;;1.10;;
12484;SDS011;6307;46.804;11.580;2022-09-09T08:21:40;2.60;;;1.20;;
12484;SDS011;6307;46.804;11.580;2022-09-09T08:24:08;1.63;;;1.40;;
12484;SDS011;6307;46.804;11.580;2022-09-09T08:26:37;1.60;;;0.87;;
12484;SDS011;6307;46.804;11.580;2022-09-09T08:29:10;1.03;;;0.90;;
12484;SDS011;6307;46.804;11.580;2022-09-09T08:31:39;2.57;;;1.00;;
12484;SDS011;6307;46.804;11.580;2022-09-09T08:34:08;1.37;;;0.80;;
12484;SDS011;6307;46.804;11.580;2022-09-09T08:36:37;1.23;;;0.70;;
12484;SDS011;6307;46.804;11.580;2022-09-09T08:39:07;1.53;;;0.90;;
12484;SDS011;6307;46.804;11.580;2022-09-09T08:44:50;4.67;;;1.10;;
12484;SDS011;6307;46.804;11.580;2022-09-09T08:50:30;4.37;;;0.60;;
12484;SDS011;6307;46.804;11.580;2022-09-09T08:53:19;1.07;;;0.80;;
12484;SDS011;6307;46.804;11.580;2022-09-09T08:56:01;1.30;;;0.63;;
12484;SDS011;6307;46.804;11.580;2022-09-09T08:58:45;2.10;;;0.70;;
12484;SDS011;6307;46.804;11.580;2022-09-09T09:01:30;2.33;;;0.77;;
12484;SDS011;6307;46.804;11.580;2022-09-09T09:07:07;3.33;;;0.80;;
12484;SDS011;6307;46.804;11.580;2022-09-09T09:09:57;1.93;;;0.97;;
12484;SDS011;6307;46.804;11.580;2022-09-09T09:12:53;1.03;;;0.83;;
12484;SDS011;6307;46.804;11.580;2022-09-09T09:15:23;1.00;;;0.80;;
12484;SDS011;6307;46.804;11.580;2022-09-09T09:17:53;0.67;;;0.60;;
12484;SDS011;6307;46.804;11.580;2022-09-09T09:20:28;1.43;;;0.73;;
12484;SDS011;6307;46.804;11.580;2022-09-09T09:23:43;1.00;;;0.70;;
12484;SDS011;6307;46.804;11.580;2022-09-09T09:26:29;1.73;;;0.80;;
12484;SDS011;6307;46.804;11.580;2022-09-09T09:29:00;1.10;;;0.67;;
12484;SDS011;6307;46.804;11.580;2022-09-09T09:31:51;1.90;;;0.77;;
12484;SDS011;6307;46.804;11.580;2022-09-09T09:34:24;2.17;;;0.87;;
12484;SDS011;6307;46.804;11.580;2022-09-09T09:36:54;2.10;;;1.20;;
12484;SDS011;6307;46.804;11.580;2022-09-09T09:39:24;4.07;;;1.13;;
12484;SDS011;6307;46.804;11.580;2022-09-09T09:41:51;1.97;;;1.10;;
12484;SDS011;6307;46.804;11.580;2022-09-09T09:44:41;4.13;;;1.30;;
12484;SDS011;6307;46.804;11.580;2022-09-09T09:49:57;2.27;;;1.23;;
12484;SDS011;6307;46.804;11.580;2022-09-09T09:52:28;1.43;;;1.00;;
12484;SDS011;6307;46.804;11.580;2022-09-09T09:54:57;3.90;;;1.27;;
12484;SDS011;6307;46.804;11.580;2022-09-09T09:57:31;4.30;;;1.10;;
12484;SDS011;6307;46.804;11.580;2022-09-09T10:00:15;2.63;;;1.10;;
12484;SDS011;6307;46.804;11.580;2022-09-09T10:02:47;2.20;;;1.00;;
12484;SDS011;6307;46.804;11.580;2022-09-09T10:05:24;3.47;;;1.03;;
12484;SDS011;6307;46.804;11.580;2022-09-09T10:08:03;2.03;;;1.13;;
12484;SDS011;6307;46.804;11.580;2022-09-09T10:14:06;1.93;;;1.30;;
12484;SDS011;6307;46.804;11.580;2022-09-09T10:17:17;1.00;;;0.80;;
12484;SDS011;6307;46.804;11.580;2022-09-09T10:22:35;2.30;;;0.90;;
12484;SDS011;6307;46.804;11.580;2022-09-09T10:28:35;1.97;;;1.03;;
12484;SDS011;6307;46.804;11.580;2022-09-09T10:56:15;3.30;;;1.10;;
12484;SDS011;6307;46.804;11.580;2022-09-09T10:58:50;4.20;;;1.23;;
12484;SDS011;6307;46.804;11.580;2022-09-09T11:01:29;4.20;;;1.30;;
12484;SDS011;6307;46.804;11.580;2022-09-09T11:04:18;3.50;;;1.20;;
12484;SDS011;6307;46.804;11.580;2022-09-09T11:07:09;2.10;;;1.37;;
12484;SDS011;6307;46.804;11.580;2022-09-09T11:09:41;4.50;;;1.07;;
12484;SDS011;6307;46.804;11.580;2022-09-09T11:12:18;1.30;;;1.20;;
12484;SDS011;6307;46.804;11.580;2022-09-09T11:17:24;1.93;;;0.90;;
12484;SDS011;6307;46.804;11.580;2022-09-09T11:20:12;1.33;;;0.80;;
12484;SDS011;6307;46.804;11.580;2022-09-09T11:22:44;1.43;;;0.90;;
12484;SDS011;6307;46.804;11.580;2022-09-09T11:25:43;1.33;;;1.07;;
12484;SDS011;6307;46.804;11.580;2022-09-09T11:36:48;1.53;;;1.10;;
12484;SDS011;6307;46.804;11.580;2022-09-09T11:42:21;2.37;;;1.00;;
12484;SDS011;6307;46.804;11.580;2022-09-09T11:44:49;2.03;;;1.30;;
12484;SDS011;6307;46.804;11.580;2022-09-09T11:47:20;3.53;;;1.03;;
12484;SDS011;6307;46.804;11.580;2022-09-09T11:52:41;1.90;;;0.80;;
12484;SDS011;6307;46.804;11.580;2022-09-09T11:55:27;0.97;;;0.80;;
12484;SDS011;6307;46.804;11.580;2022-09-09T11:57:58;0.83;;;0.80;;
12484;SDS011;6307;46.804;11.580;2022-09-09T12:00:49;1.23;;;0.83;;
12484;SDS011;6307;46.804;11.580;2022-09-09T12:06:19;0.93;;;0.70;;
12484;SDS011;6307;46.804;11.580;2022-09-09T12:09:08;3.60;;;0.80;;
12484;SDS011;6307;46.804;11.580;2022-09-09T12:17:17;1.60;;;0.63;;
12484;SDS011;6307;46.804;11.580;2022-09-09T12:29:02;1.43;;;0.60;;
12484;SDS011;6307;46.804;11.580;2022-09-09T12:32:17;0.83;;;0.50;;
12484;SDS011;6307;46.804;11.580;2022-09-09T12:35:02;0.93;;;0.53;;
12484;SDS011;6307;46.804;11.580;2022-09-09T12:37:35;0.40;;;0.40;;
12484;SDS011;6307;46.804;11.580;2022-09-09T12:40:33;0.77;;;0.50;;
12484;SDS011;6307;46.804;11.580;2022-09-09T12:43:17;0.90;;;0.43;;
12484;SDS011;6307;46.804;11.580;2022-09-09T12:45:46;2.33;;;0.60;;
12484;SDS011;6307;46.804;11.580;2022-09-09T12:48:16;0.60;;;0.40;;
12484;SDS011;6307;46.804;11.580;2022-09-09T12:50:49;2.30;;;0.40;;
12484;SDS011;6307;46.804;11.580;2022-09-09T12:56:08;0.60;;;0.60;;
12484;SDS011;6307;46.804;11.580;2022-09-09T12:58:46;0.50;;;0.50;;
12484;SDS011;6307;46.804;11.580;2022-09-09T13:01:34;2.57;;;0.70;;
12484;SDS011;6307;46.804;11.580;2022-09-09T13:04:00;0.43;;;0.40;;
12484;SDS011;6307;46.804;11.580;2022-09-09T13:06:28;0.93;;;0.57;;
12484;SDS011;6307;46.804;11.580;2022-09-09T13:08:58;0.57;;;0.57;;
12484;SDS011;6307;46.804;11.580;2022-09-09T13:12:10;1.27;;;0.57;;
12484;SDS011;6307;46.804;11.580;2022-09-09T13:17:05;0.63;;;0.60;;
12484;SDS011;6307;46.804;11.580;2022-09-09T13:19:43;0.63;;;0.60;;
12484;SDS011;6307;46.804;11.580;2022-09-09T13:22:21;0.70;;;0.70;;
12484;SDS011;6307;46.804;11.580;2022-09-09T13:25:13;0.70;;;0.70;;
12484;SDS011;6307;46.804;11.580;2022-09-09T13:35:57;0.77;;;0.60;;
12484;SDS011;6307;46.804;11.580;2022-09-09T13:38:31;0.80;;;0.60;;
12484;SDS011;6307;46.804;11.580;2022-09-09T13:43:41;0.60;;;0.47;;
12484;SDS011;6307;46.804;11.580;2022-09-09T13:51:35;0.70;;;0.57;;
12484;SDS011;6307;46.804;11.580;2022-09-09T13:54:05;1.90;;;0.40;;
12484;SDS011;6307;46.804;11.580;2022-09-09T13:56:36;0.63;;;0.53;;
12484;SDS011;6307;46.804;11.580;2022-09-09T13:59:05;1.27;;;0.60;;
12484;SDS011;6307;46.804;11.580;2022-09-09T14:01:39;0.97;;;0.60;;
12484;SDS011;6307;46.804;11.580;2022-09-09T14:04:05;0.93;;;0.50;;
12484;SDS011;6307;46.804;11.580;2022-09-09T14:06:32;0.40;;;0.40;;
12484;SDS011;6307;46.804;11.580;2022-09-09T14:09:02;0.97;;;0.50;;
12484;SDS011;6307;46.804;11.580;2022-09-09T14:11:29;0.93;;;0.43;;
12484;SDS011;6307;46.804;11.580;2022-09-09T14:13:55;0.40;;;0.40;;
12484;SDS011;6307;46.804;11.580;2022-09-09T14:16:21;1.40;;;0.60;;
12484;SDS011;6307;46.804;11.580;2022-09-09T14:18:47;0.83;;;0.60;;
12484;SDS011;6307;46.804;11.580;2022-09-09T14:21:14;1.40;;;0.30;;
12484;SDS011;6307;46.804;11.580;2022-09-09T14:23:40;0.50;;;0.50;;
12484;SDS011;6307;46.804;11.580;2022-09-09T14:26:07;0.40;;;0.40;;
12484;SDS011;6307;46.804;11.580;2022-09-09T14:28:34;0.50;;;0.40;;
12484;SDS011;6307;46.804;11.580;2022-09-09T14:31:02;3.70;;;0.47;;
12484;SDS011;6307;46.804;11.580;2022-09-09T14:33:30;1.73;;;0.37;;
12484;SDS011;6307;46.804;11.580;2022-09-09T14:36:00;0.40;;;0.40;;
12484;SDS011;6307;46.804;11.580;2022-09-09T14:38:29;0.57;;;0.43;;
12484;SDS011;6307;46.804;11.580;2022-09-09T14:40:58;2.07;;;0.40;;
12484;SDS011;6307;46.804;11.580;2022-09-09T14:43:28;0.23;;;0.23;;
12484;SDS011;6307;46.804;11.580;2022-09-09T14:45:57;0.20;;;0.20;;
12484;SDS011;6307;46.804;11.580;2022-09-09T14:48:33;0.30;;;0.30;;
12484;SDS011;6307;46.804;11.580;2022-09-09T14:51:07;0.50;;;0.50;;
12484;SDS011;6307;46.804;11.580;2022-09-09T14:53:47;1.70;;;0.50;;
12484;SDS011;6307;46.804;11.580;2022-09-09T14:56:17;0.40;;;0.40;;
12484;SDS011;6307;46.804;11.580;2022-09-09T14:58:48;1.43;;;0.53;;
12484;SDS011;6307;46.804;11.580;2022-09-09T15:01:17;1.80;;;0.30;;
12484;SDS011;6307;46.804;11.580;2022-09-09T15:03:49;0.90;;;0.67;;
12484;SDS011;6307;46.804;11.580;2022-09-09T15:06:36;0.40;;;0.40;;
12484;SDS011;6307;46.804;11.580;2022-09-09T15:09:04;1.40;;;0.40;;
12484;SDS011;6307;46.804;11.580;2022-09-09T15:11:33;3.17;;;0.60;;
12484;SDS011;6307;46.804;11.580;2022-09-09T15:14:05;2.23;;;0.70;;
12484;SDS011;6307;46.804;11.580;2022-09-09T15:16:33;0.50;;;0.50;;
12484;SDS011;6307;46.804;11.580;2022-09-09T15:19:01;0.47;;;0.47;;
12484;SDS011;6307;46.804;11.580;2022-09-09T15:21:29;0.80;;;0.40;;
12484;SDS011;6307;46.804;11.580;2022-09-09T15:23:58;0.63;;;0.40;;
12484;SDS011;6307;46.804;11.580;2022-09-09T15:26:25;0.50;;;0.30;;
12484;SDS011;6307;46.804;11.580;2022-09-09T15:28:52;2.80;;;0.50;;
12484;SDS011;6307;46.804;11.580;2022-09-09T15:31:23;0.47;;;0.47;;
12484;SDS011;6307;46.804;11.580;2022-09-09T15:33:59;0.33;;;0.33;;
12484;SDS011;6307;46.804;11.580;2022-09-09T15:39:00;1.07;;;0.30;;
12484;SDS011;6307;46.804;11.580;2022-09-09T15:41:28;2.00;;;0.40;;
12484;SDS011;6307;46.804;11.580;2022-09-09T15:43:59;0.90;;;0.40;;
12484;SDS011;6307;46.804;11.580;2022-09-09T15:48:58;1.50;;;0.40;;
12484;SDS011;6307;46.804;11.580;2022-09-09T15:51:29;0.40;;;0.40;;
12484;SDS011;6307;46.804;11.580;2022-09-09T15:53:56;3.30;;;0.53;;
12484;SDS011;6307;46.804;11.580;2022-09-09T15:56:24;0.77;;;0.50;;
12484;SDS011;6307;46.804;11.580;2022-09-09T15:58:52;1.70;;;0.70;;
12484;SDS011;6307;46.804;11.580;2022-09-09T16:01:20;1.13;;;0.60;;
12484;SDS011;6307;46.804;11.580;2022-09-09T16:03:46;2.73;;;0.57;;
12484;SDS011;6307;46.804;11.580;2022-09-09T16:06:14;1.50;;;0.57;;
12484;SDS011;6307;46.804;11.580;2022-09-09T16:08:42;0.70;;;0.50;;
12484;SDS011;6307;46.804;11.580;2022-09-09T16:11:11;3.03;;;0.60;;
12484;SDS011;6307;46.804;11.580;2022-09-09T16:13:51;1.23;;;0.47;;
12484;SDS011;6307;46.804;11.580;2022-09-09T16:16:21;1.53;;;0.60;;
12484;SDS011;6307;46.804;11.580;2022-09-09T16:18:50;0.73;;;0.30;;
12484;SDS011;6307;46.804;11.580;2022-09-09T16:21:24;2.80;;;0.67;;
12484;SDS011;6307;46.804;11.580;2022-09-09T16:23:57;0.33;;;0.30;;
12484;SDS011;6307;46.804;11.580;2022-09-09T16:26:25;1.80;;;0.60;;
12484;SDS011;6307;46.804;11.580;2022-09-09T16:28:53;1.53;;;0.40;;
12484;SDS011;6307;46.804;11.580;2022-09-09T16:31:20;1.27;;;0.40;;
12484;SDS011;6307;46.804;11.580;2022-09-09T16:33:49;3.10;;;0.53;;
12484;SDS011;6307;46.804;11.580;2022-09-09T16:36:20;1.80;;;0.60;;
12484;SDS011;6307;46.804;11.580;2022-09-09T16:38:53;1.37;;;0.50;;
12484;SDS011;6307;46.804;11.580;2022-09-09T16:41:22;1.13;;;0.60;;
12484;SDS011;6307;46.804;11.580;2022-09-09T16:43:53;0.40;;;0.40;;
12484;SDS011;6307;46.804;11.580;2022-09-09T16:46:25;1.40;;;0.60;;
12484;SDS011;6307;46.804;11.580;2022-09-09T16:48:53;2.33;;;0.57;;
12484;SDS011;6307;46.804;11.580;2022-09-09T16:51:24;0.83;;;0.50;;
12484;SDS011;6307;46.804;11.580;2022-09-09T16:54:00;1.03;;;0.43;;
12484;SDS011;6307;46.804;11.580;2022-09-09T16:56:29;1.53;;;0.60;;
12484;SDS011;6307;46.804;11.580;2022-09-09T16:59:00;3.00;;;0.60;;
12484;SDS011;6307;46.804;11.580;2022-09-09T17:01:29;1.77;;;0.63;;
12484;SDS011;6307;46.804;11.580;2022-09-09T17:03:59;3.43;;;0.80;;
12484;SDS011;6307;46.804;11.580;2022-09-09T17:06:28;0.60;;;0.53;;
12484;SDS011;6307;46.804;11.580;2022-09-09T17:08:56;1.33;;;0.40;;
12484;SDS011;6307;46.804;11.580;2022-09-09T17:11:26;0.57;;;0.37;;
12484;SDS011;6307;46.804;11.580;2022-09-09T17:13:54;1.10;;;0.70;;
12484;SDS011;6307;46.804;11.580;2022-09-09T17:16:27;1.47;;;0.80;;
12484;SDS011;6307;46.804;11.580;2022-09-09T17:18:56;0.87;;;0.60;;
12484;SDS011;6307;46.804;11.580;2022-09-09T17:21:24;1.10;;;0.60;;
12484;SDS011;6307;46.804;11.580;2022-09-09T17:23:52;1.27;;;0.50;;
12484;SDS011;6307;46.804;11.580;2022-09-09T17:26:22;1.27;;;0.60;;
12484;SDS011;6307;46.804;11.580;2022-09-09T17:28:52;1.53;;;0.50;;
12484;SDS011;6307;46.804;11.580;2022-09-09T17:31:21;0.50;;;0.50;;
12484;SDS011;6307;46.804;11.580;2022-09-09T17:33:48;1.97;;;0.80;;
12484;SDS011;6307;46.804;11.580;2022-09-09T17:36:27;0.97;;;0.50;;
12484;SDS011;6307;46.804;11.580;2022-09-09T17:38:58;1.43;;;0.80;;
12484;SDS011;6307;46.804;11.580;2022-09-09T17:41:29;0.93;;;0.77;;
12484;SDS011;6307;46.804;11.580;2022-09-09T17:43:59;0.67;;;0.63;;
12484;SDS011;6307;46.804;11.580;2022-09-09T17:46:27;0.70;;;0.70;;
12484;SDS011;6307;46.804;11.580;2022-09-09T17:48:58;1.27;;;0.70;;
12484;SDS011;6307;46.804;11.580;2022-09-09T17:51:28;1.60;;;0.53;;
12484;SDS011;6307;46.804;11.580;2022-09-09T17:54:00;1.27;;;0.70;;
12484;SDS011;6307;46.804;11.580;2022-09-09T17:56:33;0.60;;;0.50;;
12484;SDS011;6307;46.804;11.580;2022-09-09T17:59:02;2.10;;;0.80;;
12484;SDS011;6307;46.804;11.580;2022-09-09T18:01:32;1.67;;;0.60;;
12484;SDS011;6307;46.804;11.580;2022-09-09T18:04:03;2.30;;;0.63;;
12484;SDS011;6307;46.804;11.580;2022-09-09T18:06:34;2.57;;;0.70;;
12484;SDS011;6307;46.804;11.580;2022-09-09T18:09:04;1.10;;;0.77;;
12484;SDS011;6307;46.804;11.580;2022-09-09T18:11:35;3.90;;;0.90;;
12484;SDS011;6307;46.804;11.580;2022-09-09T18:14:07;0.40;;;0.40;;
12484;SDS011;6307;46.804;11.580;2022-09-09T18:16:36;1.40;;;0.70;;
12484;SDS011;6307;46.804;11.580;2022-09-09T18:19:04;3.10;;;0.67;;